• Join FlightAware (Why Join?)
  • Login
  • US Flag 
07:23PM EDT


 

Airport Tracker/Info


-or-


 

Live Flight TrackerFlight Track Log ✈ N43954 ✈ 16-Jun-2014 ✈ KGTU - KGTU

Flight Track Log - Related Links

Times and Time Zones

All times are in EDT time to prevent confusion due to time zone crossing. See the N43954 flight status page for this flight to view local times or setup timezone preferences in your user account.

Time Position Orientation Groundspeed Altitude Reporting Facility
EDT Latitude Longitude Course Direction KTS MPH feet Rate Location/Type
12:23PM 30.6853 -97.6133 48° Northeast 90 104 3,000  Level Houston Center
12:24PM 30.7114 -97.6000 24° Northeast 100 115 3,500 540 Climbing Houston Center
12:24PM 30.7178 -97.5978 17° North 101 116 3,700 600 Climbing Houston Center
12:25PM 30.7461 -97.5911 11° North 103 119 4,300 480 Climbing Houston Center
12:26PM 30.7736 -97.5811 17° North 103 119 4,700 420 Climbing Houston Center
12:27PM 30.6788 -97.6794 203° Southwest  Level Estimated
12:27PM 30.8036 -97.5733 13° North 105 121 5,200  Level Houston Center
12:28PM 30.6788 -97.6794 48° Northeast  Level Estimated
12:28PM 30.8464 -97.5586 16° North 126 145 5,100  Level Houston Center
12:29PM 30.8806 -97.5464 17° North 127 146 5,100  Level Houston Center
12:30PM 30.9153 -97.5339 17° North 127 146 5,200 -60 Climbing Houston Center
12:31PM 30.9500 -97.5214 17° North 127 146 5,000 -60 Descending Houston Center
12:32PM 30.9839 -97.5089 18° North 127 146 5,100 60 Climbing Houston Center
12:33PM 31.0203 -97.4967 16° North 129 148 5,200  Climbing Fort Worth Center
12:33PM 31.0319 -97.4911 22° Northeast 138 159 5,100 -120 Descending Fort Worth Center
12:34PM 31.0681 -97.4778 18° North 138 159 5,100  Level Fort Worth Center
12:35PM 31.0933 -97.4703 14° North 133 153 5,100  Level Fort Worth Center
12:35PM 31.1064 -97.4639 23° Northeast 135 155 5,100 -420 Level Fort Worth Center
12:36PM 31.1356 -97.4544 15° North 133 153 4,700 -540 Descending Fort Worth Center
12:37PM 31.1700 -97.4381 22° Northeast 133 153 4,100 -300 Descending Fort Worth Center
12:38PM 31.2069 -97.4225 20° North 135 155 4,100 -60 Level Fort Worth Center
12:39PM 31.2419 -97.4339 344° North 129 148 4,000  Descending Fort Worth Center
12:40PM 31.2375 -97.4494 252° West 80 92 4,100  Climbing Fort Worth Center
12:41PM 31.2242 -97.4269 125° Southeast 91 105 4,100  Level Fort Worth Center
12:42PM 31.2017 -97.4308 188° South 85 98 4,100  Level Fort Worth Center
12:43PM 31.2272 -97.4511 326° Northwest 120 138 4,100  Level Fort Worth Center
12:44PM 31.2328 -97.4528 346° North 120 138 4,100  Level Fort Worth Center
12:44PM 31.2381 -97.4369 69° East 106 122 4,100  Level Fort Worth Center
12:45PM 31.2328 -97.4358 170° South 98 113 4,100  Level Fort Worth Center
12:45PM 31.2200 -97.4278 152° Southeast 72 83 4,100  Level Fort Worth Center
12:46PM 31.2133 -97.4214 141° Southeast 87 100 4,100 60 Level Fort Worth Center
12:46PM 31.2031 -97.4258 200° South 88 101 4,200 60 Climbing Fort Worth Center
12:47PM 31.2081 -97.4336 307° West 98 113 4,200 -240 Level Fort Worth Center
12:47PM 31.2308 -97.4456 336° Northwest 138 159 4,000 -120 Descending Fort Worth Center
12:48PM 31.2358 -97.4347 62° Northeast 115 132 4,100 60 Climbing Fort Worth Center
12:48PM 31.2267 -97.4292 153° Southeast 83 96 4,100  Level Fort Worth Center
12:49PM 31.2161 -97.4264 167° South 92 106 4,100  Level Fort Worth Center
12:49PM 31.2044 -97.4206 157° South 73 84 4,100  Level Fort Worth Center
12:50PM 31.2003 -97.4300 243° Southwest 91 105 4,100  Level Fort Worth Center
12:50PM 31.2136 -97.4436 319° Northwest 114 131 4,100  Level Fort Worth Center
12:51PM 31.2264 -97.4514 333° Northwest 113 130 4,100  Level Fort Worth Center
12:51PM 31.2431 -97.4436 22° Northeast 127 146 4,100  Level Fort Worth Center
12:52PM 31.2403 -97.4303 104° East 111 128 4,100  Level Fort Worth Center
12:52PM 31.2267 -97.4292 176° South 82 94 4,100  Level Fort Worth Center
12:53PM 31.2042 -97.4353 193° South 74 85 4,100 60 Level Fort Worth Center
12:54PM 31.2089 -97.4522 288° West 104 120 4,200 60 Climbing Fort Worth Center
12:54PM 31.2161 -97.4628 309° West 125 144 4,200  Level Fort Worth Center
12:55PM 31.2347 -97.4583 12° North 114 131 4,200 -120 Level Fort Worth Center
12:55PM 31.2350 -97.4450 89° East 115 132 4,100 -120 Descending Fort Worth Center
12:56PM 31.2325 -97.4275 99° East 105 121 4,100  Level Fort Worth Center
12:56PM 31.2208 -97.4325 200° South 79 91 4,100  Level Fort Worth Center
12:57PM 31.2100 -97.4353 192° South 91 105 4,100  Level Fort Worth Center
12:57PM 31.2022 -97.4356 182° South 70 81 4,100  Level Fort Worth Center
12:58PM 31.2044 -97.4511 279° West 90 104 4,100  Level Fort Worth Center
12:58PM 31.2142 -97.4656 308° West 116 133 4,100  Level Fort Worth Center
12:59PM 31.2333 -97.4664 358° North 112 129 4,100  Level Fort Worth Center
12:59PM 31.2481 -97.4647 North 129 148 4,100 60 Level Fort Worth Center
01:00PM 31.2675 -97.4797 327° Northwest 118 136 4,200 60 Climbing Fort Worth Center
01:00PM 31.2739 -97.4875 314° West 112 129 4,200 -420 Level Fort Worth Center
01:01PM 31.2894 -97.4736 37° Northeast 119 137 3,800 -600 Descending Fort Worth Center
01:01PM 31.2883 -97.4678 103° East 96 110 3,600 -780 Descending Fort Worth Center
01:02PM 31.2794 -97.4472 117° Southeast 101 116 3,000 -840 Descending Fort Worth Center
01:02PM 31.2731 -97.4458 169° South 82 94 2,800 -780 Descending Fort Worth Center
01:03PM 31.2503 -97.4325 153° Southeast 81 93 2,100 -480 Descending Fort Worth Center
01:04PM 31.2372 -97.4311 175° South 84 97 1,900 -60 Descending Fort Worth Center
01:05PM 31.2111 -97.4219 163° South 86 99 2,000 -300 Climbing Fort Worth Center
01:06PM 31.1914 -97.4253 188° South 84 97 1,400 -420 Descending Fort Worth Center
01:07PM 31.1714 -97.4161 159° South 79 91 1,200  Descending Fort Worth Center
01:08PM 31.1528 -97.4097 164° South 77 89 1,500 420 Climbing Fort Worth Center
01:10PM 31.1497 -97.4292 260° West 91 105 2,100 660 Climbing Fort Worth Center
01:11PM 31.1761 -97.4533 322° Northwest 99 114 2,900 480 Climbing Fort Worth Center
01:12PM 31.1983 -97.4769 318° Northwest 101 116 3,200 60 Climbing Fort Worth Center
01:13PM 31.2261 -97.5011 323° Northwest 114 131 3,100 -60 Descending Fort Worth Center
01:14PM 31.2594 -97.5167 338° Northwest 123 142 3,100  Level Fort Worth Center
01:15PM 31.2989 -97.5350 338° Northwest 126 145 3,100  Level Fort Worth Center
01:16PM 31.3111 -97.5133 57° Northeast 120 138 3,100  Level Fort Worth Center
01:17PM 31.2969 -97.4822 118° Southeast 104 120 3,100  Level Fort Worth Center
01:18PM 31.2756 -97.4675 150° Southeast 85 98 3,100 -60 Level Fort Worth Center
01:19PM 31.2567 -97.4683 182° South 75 86 3,000 -300 Descending Fort Worth Center
01:20PM 31.2450 -97.4408 116° Southeast 99 114 2,600 -480 Descending Fort Worth Center
01:21PM 31.2233 -97.4369 171° South 82 94 2,100 -540 Descending Fort Worth Center
01:22PM 31.2033 -97.4281 159° South 72 83 1,600 -420 Descending Fort Worth Center
01:23PM 31.1817 -97.4200 162° South 76 87 1,300 -300 Descending Fort Worth Center
01:24PM 31.1614 -97.4125 162° South 75 86 1,000 -120 Descending Fort Worth Center
01:24PM 31.1544 -97.4094 159° South 78 90 1,200 660 Climbing Fort Worth Center
01:25PM 31.1425 -97.4139 198° South 68 78 1,600 480 Climbing Fort Worth Center
01:25PM 31.1433 -97.4142 344° North 76 87 1,600 720 Level Fort Worth Center
01:26PM 31.1289 -97.4233 209° Southwest 72 83 2,300 720 Climbing Fort Worth Center
01:26PM 31.1261 -97.4261 221° Southwest 76 87 2,400 480 Climbing Fort Worth Center
01:27PM 31.1097 -97.4389 214° Southwest 74 85 2,800 480 Climbing Fort Worth Center
01:27PM 31.1086 -97.4392 192° South 76 87 2,900 480 Climbing Fort Worth Center
01:28PM 31.0914 -97.4444 195° South 72 83 3,300 540 Climbing Fort Worth Center
01:28PM 31.0864 -97.4478 210° Southwest 74 85 3,500 540 Climbing Fort Worth Center
01:29PM 31.0758 -97.4544 208° Southwest 66 76 3,900 540 Climbing Fort Worth Center
01:29PM 31.0697 -97.4572 201° Southwest 71 82 4,100 300 Climbing Fort Worth Center
01:30PM 31.0583 -97.4672 217° Southwest 74 85 4,200 60 Climbing Fort Worth Center
01:30PM 31.0519 -97.4736 221° Southwest 73 84 4,200  Level Fort Worth Center
01:31PM 31.0347 -97.4808 200° South 93 107 4,200  Level Fort Worth Center
01:31PM 31.0297 -97.4856 219° Southwest 83 96 4,200 -120 Level Fort Worth Center
01:32PM 31.0136 -97.4967 211° Southwest 96 110 4,100 -120 Descending Fort Worth Center
01:32PM 31.0081 -97.5019 219° Southwest 89 102 4,100  Level Fort Worth Center
01:33PM 30.9917 -97.5078 197° South 83 96 4,100  Level Fort Worth Center
01:33PM 30.9817 -97.5133 205° Southwest 88 101 4,100  Level Fort Worth Center
01:34PM 30.9697 -97.5186 201° Southwest 81 93 4,100 60 Level Fort Worth Center
01:34PM 30.9608 -97.5253 213° Southwest 86 99 4,200  Climbing Fort Worth Center
01:35PM 30.9483 -97.5319 205° Southwest 87 100 4,100 -120 Descending Fort Worth Center
01:35PM 30.9389 -97.5356 198° South 86 99 4,100 60 Level Fort Worth Center
01:36PM 30.9261 -97.5406 199° South 83 96 4,200  Climbing Fort Worth Center
01:36PM 30.9175 -97.5456 206° Southwest 86 99 4,100  Descending Fort Worth Center
01:37PM 30.9042 -97.5517 201° Southwest 84 97 4,200 60 Climbing Fort Worth Center
01:37PM 30.8958 -97.5553 200° South 86 99 4,200  Level Fort Worth Center
01:39PM 30.8686 -97.5622 192° South 85 98 4,200 -240 Level Houston Center
01:40PM 30.8617 -97.5878 252° West 94 108 3,700 -480 Descending Houston Center
01:41PM 30.8650 -97.6172 278° West 94 108 3,300 -300 Descending Houston Center
01:42PM 30.8689 -97.6517 278° West 97 112 3,100 -120 Descending Houston Center
01:43PM 30.8461 -97.6614 200° South 93 107 3,100  Level Houston Center
01:44PM 30.8222 -97.6644 186° South 86 99 3,100  Level Houston Center
01:45PM 30.7986 -97.6672 186° South 86 99 3,100 -120 Level Houston Center
01:46PM 30.7783 -97.6692 185° South 81 93 2,900 -480 Descending Houston Center
01:47PM 30.7533 -97.6717 185° South 82 94 2,200 -600 Descending Houston Center
01:48PM 30.7250 -97.6756 187° South 86 99 1,700 -480 Descending Houston Center
01:49PM 30.7039 -97.6764 182° South 82 94 1,300 -360 Descending Houston Center
01:50PM 30.6814 -97.6778 183° South 79 91 1,000 -300 Descending Houston Center
01:52PM 30.6788 -97.6794 198° South  Level Estimated